createdAt,value
2023-04-20T00:00:29.562Z,9.52
2023-04-20T00:03:33.136Z,12.00
2023-04-20T00:06:34.921Z,10.00
2023-04-20T00:09:36.532Z,9.32
2023-04-20T00:12:38.054Z,9.45
2023-04-20T00:15:39.578Z,8.75
2023-04-20T00:18:41.304Z,10.90
2023-04-20T00:21:42.827Z,12.75
2023-04-20T00:24:44.370Z,10.73
2023-04-20T00:27:45.984Z,9.35
2023-04-20T00:30:47.586Z,9.35
2023-04-20T00:33:49.252Z,8.65
2023-04-20T00:36:51.005Z,11.82
2023-04-20T00:39:52.714Z,9.32
2023-04-20T00:42:54.235Z,11.45
2023-04-20T00:45:58.303Z,9.27
2023-04-20T00:49:00.162Z,8.77
2023-04-20T00:52:01.845Z,10.27
2023-04-20T00:55:05.529Z,8.98
2023-04-20T00:58:07.095Z,8.00
2023-04-20T01:01:08.888Z,8.40
2023-04-20T01:04:10.812Z,9.32
2023-04-20T01:07:12.476Z,9.15
2023-04-20T01:10:14.050Z,7.97
2023-04-20T01:13:15.932Z,8.20
2023-04-20T01:16:17.603Z,10.63
2023-04-20T01:19:19.358Z,8.25
2023-04-20T01:22:21.259Z,8.48
2023-04-20T01:25:23.388Z,9.07
2023-04-20T01:28:26.443Z,8.18
2023-04-20T01:31:28.035Z,9.82
2023-04-20T01:34:29.651Z,7.93
2023-04-20T01:37:31.323Z,9.73
2023-04-20T01:40:32.927Z,10.10
2023-04-20T01:43:36.685Z,10.55
2023-04-20T01:46:40.124Z,9.82
2023-04-20T01:49:42.072Z,8.15
2023-04-20T01:52:43.582Z,8.38
2023-04-20T01:55:45.159Z,10.10
2023-04-20T01:58:48.147Z,9.40
2023-04-20T02:01:50.910Z,9.63
2023-04-20T02:04:53.289Z,10.60
2023-04-20T02:07:55.282Z,8.52
2023-04-20T02:10:56.922Z,8.57
2023-04-20T02:13:58.409Z,12.80
2023-04-20T02:17:00.906Z,10.25
2023-04-20T02:20:07.290Z,13.73
2023-04-20T02:23:09.135Z,9.10
2023-04-20T02:26:10.736Z,9.15
2023-04-20T02:29:15.070Z,10.90
2023-04-20T02:32:16.740Z,9.90
2023-04-20T02:35:18.457Z,9.23
2023-04-20T02:38:20.372Z,10.02
2023-04-20T02:41:21.887Z,10.10
2023-04-20T02:44:23.861Z,10.82
2023-04-20T02:47:25.955Z,10.15
2023-04-20T02:50:28.864Z,11.90
2023-04-20T02:53:47.029Z,9.40
2023-04-20T02:57:01.620Z,11.75
2023-04-20T03:00:03.580Z,11.05
2023-04-20T03:03:21.607Z,9.63
2023-04-20T03:06:23.364Z,9.80
2023-04-20T03:09:29.933Z,9.15
2023-04-20T03:12:40.490Z,9.35
2023-04-20T03:15:47.776Z,9.68
2023-04-20T03:19:01.039Z,9.82
2023-04-20T03:22:02.809Z,11.10
2023-04-20T03:25:07.787Z,10.50
2023-04-20T03:28:26.693Z,9.80
2023-04-20T03:31:28.490Z,10.85
2023-04-20T03:34:32.012Z,9.13
2023-04-20T03:37:33.793Z,11.65
2023-04-20T03:40:35.444Z,10.15
2023-04-20T03:43:37.438Z,10.75
2023-04-20T03:46:38.984Z,9.75
2023-04-20T03:49:40.547Z,12.13
2023-04-20T03:52:42.104Z,11.07
2023-04-20T03:55:45.515Z,11.00
2023-04-20T03:58:50.594Z,9.90
2023-04-20T04:01:56.782Z,9.70
2023-04-20T04:04:58.519Z,13.02
2023-04-20T04:08:01.552Z,9.00
2023-04-20T04:11:03.066Z,11.35
2023-04-20T04:14:05.229Z,9.70
2023-04-20T04:17:08.213Z,12.05
2023-04-20T04:20:12.584Z,9.23
2023-04-20T04:23:14.812Z,9.82
2023-04-20T04:26:24.784Z,11.57
2023-04-20T04:29:27.519Z,13.70
2023-04-20T04:32:34.555Z,10.98
2023-04-20T04:35:36.636Z,9.45
2023-04-20T04:38:38.798Z,10.82
2023-04-20T04:41:40.471Z,11.77
2023-04-20T04:44:56.264Z,13.30
2023-04-20T04:48:08.012Z,9.38
2023-04-20T04:51:10.383Z,10.43
2023-04-20T04:54:12.005Z,10.88
2023-04-20T04:57:14.891Z,9.60
2023-04-20T05:00:16.849Z,10.27
2023-04-20T05:03:18.531Z,11.50
2023-04-20T05:06:20.553Z,12.57
2023-04-20T05:09:22.060Z,12.30
2023-04-20T05:12:25.669Z,11.73
2023-04-20T05:15:27.265Z,10.52
2023-04-20T05:18:54.161Z,14.13
2023-04-20T05:21:55.745Z,15.02
2023-04-20T05:24:57.337Z,12.15
2023-04-20T05:27:58.985Z,10.25
2023-04-20T05:31:00.537Z,11.98
2023-04-20T05:34:02.955Z,10.50
2023-04-20T05:37:05.638Z,13.23
2023-04-20T05:40:07.926Z,12.35
2023-04-20T05:43:09.421Z,11.80
2023-04-20T05:46:11.022Z,11.90
2023-04-20T05:49:12.549Z,11.00
2023-04-20T05:52:14.083Z,10.05
2023-04-20T05:55:18.451Z,10.13
2023-04-20T05:58:21.188Z,12.30
2023-04-20T06:01:22.954Z,10.98
2023-04-20T06:04:24.639Z,9.95
2023-04-20T06:07:26.245Z,11.32
2023-04-20T06:10:32.295Z,11.98
2023-04-20T06:13:33.758Z,10.25
2023-04-20T06:16:35.304Z,13.23
2023-04-20T06:19:36.902Z,13.48
2023-04-20T06:22:44.405Z,10.95
2023-04-20T06:25:46.178Z,13.23
2023-04-20T06:28:48.475Z,11.00
2023-04-20T06:31:50.307Z,12.60
2023-04-20T06:34:52.762Z,12.82
2023-04-20T06:37:57.276Z,16.27
2023-04-20T06:41:01.914Z,10.98
2023-04-20T06:44:03.546Z,9.65
2023-04-20T06:47:05.653Z,11.50
2023-04-20T06:50:09.375Z,9.70
2023-04-20T06:56:12.590Z,10.63
2023-04-20T06:59:16.685Z,9.38
2023-04-20T07:02:18.570Z,10.38
2023-04-20T07:05:20.328Z,13.38
2023-04-20T07:08:21.906Z,13.63
2023-04-20T07:11:24.541Z,14.63
2023-04-20T07:14:26.172Z,11.85
2023-04-20T07:17:28.247Z,12.63
2023-04-20T07:20:30.037Z,11.68
2023-04-20T07:23:31.557Z,12.25
2023-04-20T07:26:34.464Z,12.50
2023-04-20T07:32:40.843Z,13.32
2023-04-20T07:35:42.398Z,10.80
2023-04-20T07:38:43.873Z,12.60
2023-04-20T07:41:45.398Z,12.48
2023-04-20T07:44:50.127Z,11.43
2023-04-20T07:47:52.464Z,12.77
2023-04-20T07:50:53.949Z,12.27
2023-04-20T07:53:56.109Z,14.02
2023-04-20T07:56:57.879Z,13.55
2023-04-20T07:59:59.364Z,11.40
2023-04-20T08:03:01.184Z,11.00
2023-04-20T08:06:02.838Z,10.20
2023-04-20T08:09:04.404Z,12.63
2023-04-20T08:12:05.906Z,12.30
2023-04-20T08:15:08.264Z,12.63
2023-04-20T08:18:11.316Z,13.43
2023-04-20T08:21:12.886Z,13.05
2023-04-20T08:24:14.481Z,14.15
2023-04-20T08:27:15.940Z,12.73
2023-04-20T08:30:17.534Z,11.48
2023-04-20T08:33:19.006Z,10.65
2023-04-20T08:36:20.727Z,9.80
2023-04-20T08:39:24.064Z,10.10
2023-04-20T08:42:25.783Z,9.90
2023-04-20T08:45:28.264Z,10.75
2023-04-20T08:48:35.703Z,9.73
2023-04-20T08:51:37.229Z,10.40
2023-04-20T08:54:45.947Z,9.38
2023-04-20T08:57:54.766Z,9.73
2023-04-20T09:00:57.191Z,9.07
2023-04-20T09:04:00.742Z,8.63
2023-04-20T09:07:02.921Z,10.65
2023-04-20T09:10:04.733Z,11.48
2023-04-20T09:13:06.851Z,11.40
2023-04-20T09:16:13.549Z,12.65
2023-04-20T09:19:15.573Z,10.07
2023-04-20T09:22:17.127Z,10.27
2023-04-20T09:25:19.247Z,8.32
2023-04-20T09:28:20.980Z,11.73
2023-04-20T09:31:23.413Z,10.07
2023-04-20T09:34:25.710Z,9.35
2023-04-20T09:37:27.460Z,9.18
2023-04-20T09:40:29.772Z,9.43
2023-04-20T09:43:32.236Z,8.25
2023-04-20T09:46:35.662Z,9.18
2023-04-20T09:49:37.152Z,8.05
2023-04-20T09:52:39.066Z,9.73
2023-04-20T09:55:45.722Z,8.63
2023-04-20T09:58:47.295Z,9.27
2023-04-20T10:01:49.074Z,8.70
2023-04-20T10:04:58.031Z,7.80
2023-04-20T10:08:01.385Z,7.40
2023-04-20T10:11:02.901Z,6.85
2023-04-20T10:14:18.979Z,6.88
2023-04-20T10:17:30.827Z,6.90
2023-04-20T10:20:32.566Z,6.38
2023-04-20T10:23:34.198Z,6.63
2023-04-20T10:26:40.207Z,5.45
2023-04-20T10:29:42.014Z,6.18
2023-04-20T10:32:43.621Z,5.78
2023-04-20T10:35:51.920Z,5.72
2023-04-20T10:38:53.513Z,6.35
2023-04-20T10:42:01.254Z,5.38
2023-04-20T10:45:02.802Z,5.50
2023-04-20T10:48:09.231Z,5.40
2023-04-20T10:51:11.293Z,7.18
2023-04-20T10:54:12.924Z,5.75
2023-04-20T10:57:16.365Z,7.97
2023-04-20T11:00:22.902Z,5.43
2023-04-20T11:03:24.676Z,5.13
2023-04-20T11:06:26.277Z,5.22
2023-04-20T11:09:28.429Z,4.47
2023-04-20T11:12:38.603Z,6.25
2023-04-20T11:15:40.185Z,5.68
2023-04-20T11:18:51.918Z,5.75
2023-04-20T11:21:53.948Z,4.97
2023-04-20T11:25:06.764Z,6.18
2023-04-20T11:28:09.274Z,5.20
2023-04-20T11:31:17.560Z,4.85
2023-04-20T11:34:19.267Z,5.45
2023-04-20T11:37:21.410Z,4.72
2023-04-20T11:40:23.097Z,5.18
2023-04-20T11:43:24.616Z,4.68
2023-04-20T11:46:26.239Z,4.55
2023-04-20T11:49:29.341Z,4.20
2023-04-20T11:52:30.868Z,4.00
2023-04-20T11:55:32.665Z,4.20
2023-04-20T11:58:34.472Z,4.68
2023-04-20T12:01:36.398Z,4.15
2023-04-20T12:04:39.002Z,3.95
2023-04-20T12:07:40.820Z,3.53
2023-04-20T12:10:42.408Z,3.50
2023-04-20T12:13:43.850Z,4.05
2023-04-20T12:16:45.466Z,4.28
2023-04-20T12:19:47.778Z,3.92
2023-04-20T12:22:49.404Z,3.85
2023-04-20T12:25:50.999Z,2.80
2023-04-20T12:28:52.967Z,2.95
2023-04-20T12:31:54.631Z,3.38
2023-04-20T12:34:56.215Z,3.58
2023-04-20T12:37:57.789Z,2.92
2023-04-20T12:40:59.353Z,3.30
2023-04-20T12:44:03.419Z,4.10
2023-04-20T12:47:07.030Z,3.67
2023-04-20T12:50:09.031Z,3.00
2023-04-20T12:53:10.896Z,2.65
2023-04-20T12:56:12.367Z,2.78
2023-04-20T12:59:14.261Z,2.55
2023-04-20T13:02:16.174Z,3.00
2023-04-20T13:05:17.951Z,3.00
2023-04-20T13:08:19.843Z,3.60
2023-04-20T13:11:22.071Z,2.88
2023-04-20T13:14:23.610Z,2.83
2023-04-20T13:17:25.189Z,3.22
2023-04-20T13:20:30.323Z,9.65
2023-04-20T13:23:31.857Z,3.03
2023-04-20T13:26:33.460Z,3.47
2023-04-20T13:29:34.934Z,3.65
2023-04-20T13:32:37.630Z,3.30
2023-04-20T13:35:40.758Z,2.58
2023-04-20T13:38:42.190Z,2.55
2023-04-20T13:41:43.962Z,6.60
2023-04-20T13:44:45.630Z,4.38
2023-04-20T13:47:47.189Z,2.95
2023-04-20T13:50:48.691Z,2.85
2023-04-20T13:53:50.193Z,3.13
2023-04-20T13:56:51.717Z,2.10
2023-04-20T13:59:53.216Z,1.75
2023-04-20T14:02:56.100Z,1.98
2023-04-20T14:05:58.006Z,2.42
2023-04-20T14:08:59.507Z,2.38
2023-04-20T14:12:02.149Z,1.38
2023-04-20T14:15:04.305Z,1.98
2023-04-20T14:18:06.102Z,1.30
2023-04-20T14:21:07.749Z,1.40
2023-04-20T14:24:10.150Z,1.65
2023-04-20T14:27:11.754Z,7.43
2023-04-20T14:30:13.683Z,2.13
2023-04-20T14:33:15.156Z,3.10
2023-04-20T14:36:16.646Z,1.65
2023-04-20T14:39:20.442Z,2.67
2023-04-20T14:42:22.028Z,3.42
2023-04-20T14:45:23.967Z,2.20
2023-04-20T14:48:25.457Z,4.22
2023-04-20T14:51:27.089Z,4.38
2023-04-20T14:54:29.663Z,4.97
2023-04-20T14:57:31.579Z,1.52
2023-04-20T15:00:33.514Z,2.97
2023-04-20T15:03:35.479Z,2.20
2023-04-20T15:06:37.101Z,2.05
2023-04-20T15:09:38.816Z,5.30
2023-04-20T15:12:40.258Z,3.42
2023-04-20T15:18:51.662Z,2.40
2023-04-20T15:21:53.210Z,3.13
2023-04-20T15:24:54.713Z,1.80
2023-04-20T15:27:56.223Z,1.85
2023-04-20T15:30:57.816Z,1.30
2023-04-20T15:34:00.199Z,1.27
2023-04-20T15:37:01.694Z,1.15
2023-04-20T15:40:03.687Z,0.88
2023-04-20T15:43:05.279Z,1.77
2023-04-20T15:46:06.767Z,2.85
2023-04-20T15:49:08.254Z,2.63
2023-04-20T15:52:09.862Z,2.40
2023-04-20T15:55:11.842Z,3.03
2023-04-20T15:58:13.291Z,1.77
2023-04-20T16:01:16.466Z,1.73
2023-04-20T16:04:18.563Z,1.97
2023-04-20T16:07:21.088Z,1.40
2023-04-20T16:10:23.579Z,1.23
2023-04-20T16:13:26.214Z,3.45
2023-04-20T16:16:27.933Z,5.88
2023-04-20T16:19:32.303Z,2.00
2023-04-20T16:22:34.028Z,1.50
2023-04-20T16:25:36.468Z,1.55
2023-04-20T16:28:38.118Z,2.50
2023-04-20T16:31:41.075Z,1.60
2023-04-20T16:34:42.653Z,2.10
2023-04-20T16:37:45.516Z,2.40
2023-04-20T16:40:47.403Z,1.60
2023-04-20T16:43:49.275Z,2.80
2023-04-20T16:46:51.400Z,2.10
2023-04-20T16:49:52.989Z,2.05
2023-04-20T16:52:54.522Z,1.90
2023-04-20T16:55:56.041Z,2.58
2023-04-20T16:58:58.192Z,1.85
2023-04-20T17:01:59.842Z,2.53
2023-04-20T17:05:01.717Z,4.25
2023-04-20T17:08:22.567Z,3.17
2023-04-20T17:11:24.046Z,2.42
2023-04-20T17:14:25.963Z,2.78
2023-04-20T17:17:28.265Z,4.68
2023-04-20T17:20:29.974Z,3.28
2023-04-20T17:23:33.707Z,2.42
2023-04-20T17:26:35.275Z,2.13
2023-04-20T17:29:38.561Z,3.20
2023-04-20T17:32:40.520Z,19.58
2023-04-20T17:35:42.054Z,7.22
2023-04-20T17:38:44.160Z,6.00
2023-04-20T17:41:46.052Z,4.60
2023-04-20T17:44:47.764Z,3.75
2023-04-20T17:47:49.437Z,3.92
2023-04-20T17:50:51.487Z,4.72
2023-04-20T17:53:53.185Z,4.38
2023-04-20T17:56:56.083Z,7.07
2023-04-20T17:59:57.782Z,10.55
2023-04-20T18:03:00.256Z,5.80
2023-04-20T18:06:03.126Z,5.60
2023-04-20T18:09:04.897Z,5.10
2023-04-20T18:12:11.306Z,3.90
2023-04-20T18:15:13.047Z,1.63
2023-04-20T18:18:16.716Z,3.75
2023-04-20T18:21:18.301Z,9.70
2023-04-20T18:24:20.044Z,2.45
2023-04-20T18:27:21.703Z,2.13
2023-04-20T18:30:23.271Z,1.60
2023-04-20T18:33:24.799Z,1.98
2023-04-20T18:36:26.884Z,2.92
2023-04-20T18:39:29.796Z,3.75
2023-04-20T18:42:31.487Z,2.63
2023-04-20T18:45:33.015Z,2.88
2023-04-20T18:48:34.553Z,2.88
2023-04-20T18:51:36.064Z,2.85
2023-04-20T18:54:38.480Z,3.63
2023-04-20T18:57:40.325Z,6.47
2023-04-20T19:00:41.838Z,4.32
2023-04-20T19:03:45.550Z,3.58
2023-04-20T19:06:49.300Z,3.63
2023-04-20T19:09:50.801Z,2.97
2023-04-20T19:12:52.243Z,3.75
2023-04-20T19:15:59.614Z,3.60
2023-04-20T19:19:01.542Z,4.35
2023-04-20T19:22:04.372Z,5.03
2023-04-20T19:25:06.487Z,5.72
2023-04-20T19:28:08.253Z,10.05
2023-04-20T19:31:10.997Z,9.23
2023-04-20T19:34:13.342Z,9.20
2023-04-20T19:37:15.226Z,5.20
2023-04-20T19:40:16.748Z,5.05
2023-04-20T19:43:18.212Z,4.30
2023-04-20T19:46:20.472Z,10.55
2023-04-20T19:49:22.089Z,7.13
2023-04-20T19:52:23.652Z,8.68
2023-04-20T19:55:25.252Z,6.50
2023-04-20T19:58:26.796Z,5.20
2023-04-20T20:01:28.415Z,7.80
2023-04-20T20:04:30.089Z,8.68
2023-04-20T20:07:31.736Z,7.00
2023-04-20T20:10:33.321Z,10.15
2023-04-20T20:13:34.773Z,6.25
2023-04-20T20:16:36.327Z,3.90
2023-04-20T20:19:37.833Z,3.90
2023-04-20T20:22:39.334Z,3.72
2023-04-20T20:25:40.988Z,4.60
2023-04-20T20:28:42.487Z,3.80
2023-04-20T20:31:45.371Z,3.30
2023-04-20T20:34:47.243Z,3.92
2023-04-20T20:37:48.869Z,4.63
2023-04-20T20:40:50.529Z,3.72
2023-04-20T20:43:52.940Z,4.22
2023-04-20T20:46:54.627Z,4.25
2023-04-20T20:49:56.705Z,4.95
2023-04-20T20:52:58.213Z,4.32
2023-04-20T20:55:59.714Z,6.65
2023-04-20T20:59:01.166Z,4.82
2023-04-20T21:02:03.373Z,5.68
2023-04-20T21:05:06.312Z,4.55
2023-04-20T21:08:09.931Z,6.82
2023-04-20T21:11:11.484Z,4.65
2023-04-20T21:14:12.952Z,6.13
2023-04-20T21:17:14.474Z,7.10
2023-04-20T21:20:16.080Z,5.40
2023-04-20T21:23:17.592Z,4.20
2023-04-20T21:26:19.023Z,3.97
2023-04-20T21:29:20.775Z,6.13
2023-04-20T21:32:22.412Z,7.30
2023-04-20T21:35:23.993Z,5.20
2023-04-20T21:38:25.588Z,5.95
2023-04-20T21:41:28.952Z,7.57
2023-04-20T21:44:30.719Z,6.60
2023-04-20T21:47:32.194Z,4.18
2023-04-20T21:50:33.682Z,4.75
2023-04-20T21:53:35.193Z,4.70
2023-04-20T21:56:36.660Z,6.00
2023-04-20T21:59:38.094Z,6.63
2023-04-20T22:02:39.802Z,5.32
2023-04-20T22:05:41.375Z,4.78
2023-04-20T22:08:42.924Z,5.22
2023-04-20T22:11:45.146Z,5.88
2023-04-20T22:14:46.745Z,5.07
2023-04-20T22:17:48.368Z,4.88
2023-04-20T22:20:51.253Z,5.22
2023-04-20T22:23:53.004Z,5.40
2023-04-20T22:26:54.433Z,5.90
2023-04-20T22:29:56.110Z,5.72
2023-04-20T22:32:57.600Z,6.35
2023-04-20T22:35:59.160Z,5.25
2023-04-20T22:39:00.803Z,4.90
2023-04-20T22:42:02.826Z,4.80
2023-04-20T22:45:04.853Z,4.90
2023-04-20T22:48:06.655Z,5.57
2023-04-20T22:51:08.223Z,5.25
2023-04-20T22:54:09.677Z,4.72
2023-04-20T22:57:11.385Z,4.78
2023-04-20T23:00:14.034Z,5.70
2023-04-20T23:03:15.997Z,5.75
2023-04-20T23:06:18.876Z,5.25
2023-04-20T23:09:20.652Z,6.53
2023-04-20T23:12:22.520Z,5.07
2023-04-20T23:15:24.022Z,5.47
2023-04-20T23:18:25.604Z,5.75
2023-04-20T23:21:30.112Z,6.38
2023-04-20T23:24:31.674Z,5.45
2023-04-20T23:27:33.130Z,5.65
2023-04-20T23:30:34.605Z,7.13
2023-04-20T23:33:36.124Z,6.28
2023-04-20T23:36:37.690Z,5.25
2023-04-20T23:39:39.177Z,7.30
2023-04-20T23:42:40.684Z,5.80
2023-04-20T23:45:42.245Z,6.45
2023-04-20T23:48:43.759Z,7.22
2023-04-20T23:51:45.258Z,5.80
2023-04-20T23:54:47.420Z,6.80
2023-04-20T23:57:48.944Z,6.07
